Ben Arnold, Texas
Current Conditions -  °F | °C
As of 1:55 AM on Thursday 23 Oct 2014 (Local Time) from KT35 Reporting Station
Clear Clear  
Wind Chill: 66°   Ceiling: Unl
Heat Index: 66°   Visibility: 10mi
Dew Point: 59°   Wind: 5mph
Humidity: 77%   Direction: 130°SE
Pressure: 30.1"   Gusts: NA
Location:  30.9882°N, 97.103°W
Report Text: KT35 230655Z AUTO 13004KT 10SM CLR 19/15 A3010 RMK AO2 T01900148
Loading
Personal Weather Stations






























Interactive Weather Map
Tropical Storm Tracking
New forecast layout! Learn more

10-Day Weather Forecast

Advertisements
Track Severe Weather on mobile